Time;durP1;ratioP1;P1;durP2;ratioP2;P2;SDS_P1;SDS_P2;PMS_P1;PMS_P2;Temp;Humidity;BMP_temperature;BMP_pressure;BME280_temperature;BME280_humidity;BME280_pressure;Samples;Min_cycle;Max_cycle;Signal;HPM_P1;HPM_P2
2023/04/09 00:02:10;;;;;;;12.40;5.32;;;;;;;9.06;100.00;101032.53;5002207;28;20033;-75
2023/04/09 00:04:35;;;;;;;11.35;5.30;;;;;;;9.04;100.00;101034.72;5019014;28;20061;-75
2023/04/09 00:07:01;;;;;;;8.70;6.03;;;;;;;9.03;100.00;101038.63;5040567;28;20485;-75
2023/04/09 00:09:26;;;;;;;9.25;5.05;;;;;;;9.04;100.00;101036.66;5035715;28;20060;-75
2023/04/09 00:11:52;;;;;;;9.32;4.85;;;;;;;9.02;100.00;101036.94;5036135;28;20075;-75
2023/04/09 00:14:17;;;;;;;8.45;5.15;;;;;;;9.00;100.00;101030.00;5067972;28;20032;-75
2023/04/09 00:16:43;;;;;;;8.82;5.55;;;;;;;8.96;100.00;101029.72;5034862;28;20037;-75
2023/04/09 00:19:08;;;;;;;8.18;5.10;;;;;;;8.94;100.00;101029.13;5034919;28;20056;-75
2023/04/09 00:21:34;;;;;;;11.50;5.93;;;;;;;8.89;100.00;101020.84;5002411;28;20398;-75
2023/04/09 00:24:00;;;;;;;9.95;5.05;;;;;;;8.90;100.00;101026.09;5018592;28;20037;-75
2023/04/09 00:26:25;;;;;;;11.02;6.22;;;;;;;8.86;100.00;101021.34;5044934;28;20063;-75
2023/04/09 00:28:50;;;;;;;11.13;5.93;;;;;;;8.88;100.00;101021.91;5018390;28;20115;-75
2023/04/09 00:31:16;;;;;;;11.68;6.30;;;;;;;8.84;100.00;101020.81;5021341;28;20022;-75
2023/04/09 00:33:42;;;;;;;11.70;6.43;;;;;;;8.86;100.00;101018.56;5040624;28;20039;-75
2023/04/09 00:36:07;;;;;;;8.43;5.72;;;;;;;8.86;100.00;101013.03;4997425;28;20026;-74
2023/04/09 00:38:33;;;;;;;11.35;6.07;;;;;;;8.86;100.00;101015.81;5031673;28;20032;-75
2023/04/09 00:40:58;;;;;;;12.90;6.65;;;;;;;8.84;100.00;101010.56;5050932;28;20368;-75
2023/04/09 00:43:24;;;;;;;14.55;7.07;;;;;;;8.84;100.00;101007.78;5018269;28;20029;-75
2023/04/09 00:45:50;;;;;;;13.43;6.50;;;;;;;8.81;100.00;101001.97;5017962;28;20044;-75
2023/04/09 00:48:15;;;;;;;11.23;6.68;;;;;;;8.83;100.00;101002.50;5012476;28;20034;-75
2023/04/09 00:50:41;;;;;;;11.20;6.18;;;;;;;8.82;100.00;101003.63;5030312;28;20049;-75
2023/04/09 00:53:07;;;;;;;14.10;6.30;;;;;;;8.78;100.00;100999.72;5034304;28;20179;-75
2023/04/09 00:55:32;;;;;;;12.70;6.63;;;;;;;8.77;100.00;101001.66;5018578;28;20040;-75
2023/04/09 00:57:58;;;;;;;12.60;7.22;;;;;;;8.76;100.00;101004.69;5035974;28;20471;-74
2023/04/09 01:00:23;;;;;;;10.93;6.32;;;;;;;8.73;100.00;101004.13;5030088;28;20367;-75
2023/04/09 01:02:51;;;;;;;13.30;6.75;;;;;;;8.68;100.00;101006.03;5034190;28;20025;-75
2023/04/09 01:05:17;;;;;;;13.75;7.28;;;;;;;8.67;100.00;100998.84;5035661;28;20437;-75
2023/04/09 01:08:02;;;;;;;10.88;6.72;;;;;;;8.68;100.00;101001.34;5017883;28;20026;-75
2023/04/09 01:10:42;;;;;;;12.57;7.22;;;;;;;8.64;100.00;100997.44;5000933;28;20087;-75
2023/04/09 01:13:12;;;;;;;12.95;7.30;;;;;;;8.64;100.00;101000.22;5030847;28;20084;-75
2023/04/09 01:15:42;;;;;;;10.77;6.20;;;;;;;8.59;100.00;100983.56;5043740;28;20029;-74
2023/04/09 01:18:18;;;;;;;10.75;6.63;;;;;;;8.57;100.00;100994.06;5022588;28;20026;-74
2023/04/09 01:21:13;;;;;;;11.05;6.50;;;;;;;8.54;100.00;100985.47;5030156;28;20502;-74
2023/04/09 01:24:01;;;;;;;10.02;6.55;;;;;;;8.53;100.00;100979.13;5000704;28;20129;-75
2023/04/09 01:27:00;;;;;;;14.60;7.57;;;;;;;8.45;100.00;100977.69;5049322;28;20108;-75
2023/04/09 01:29:25;;;;;;;10.18;6.15;;;;;;;8.46;100.00;100989.59;5050151;28;20075;-75
2023/04/09 01:31:51;;;;;;;11.38;6.65;;;;;;;8.44;100.00;100976.03;5049263;28;20026;-75
2023/04/09 01:34:16;;;;;;;11.02;6.50;;;;;;;8.37;100.00;100977.34;5039928;28;20026;-75
2023/04/09 01:36:45;;;;;;;12.40;7.60;;;;;;;8.35;100.00;100968.47;5032723;28;20049;-75
2023/04/09 01:39:10;;;;;;;12.30;6.53;;;;;;;8.34;100.00;100966.81;5033815;28;20470;-75
2023/04/09 01:41:36;;;;;;;13.40;7.70;;;;;;;8.29;100.00;100970.38;5033593;28;20118;-75
2023/04/09 01:44:02;;;;;;;10.70;6.60;;;;;;;8.31;100.00;100975.66;5021271;28;20033;-75
2023/04/09 01:46:28;;;;;;;11.60;6.97;;;;;;;8.25;100.00;100977.56;5034874;28;20029;-75
2023/04/09 01:48:53;;;;;;;13.43;7.07;;;;;;;8.27;100.00;100973.41;5033358;28;20044;-75
2023/04/09 01:51:19;;;;;;;12.45;6.70;;;;;;;8.24;100.00;100971.16;5033578;28;20068;-75
2023/04/09 01:53:44;;;;;;;13.48;7.43;;;;;;;8.18;100.00;100983.28;5030503;28;20021;-75
2023/04/09 01:56:10;;;;;;;13.10;6.70;;;;;;;8.18;100.00;100977.75;5043899;28;20025;-75
2023/04/09 01:58:35;;;;;;;12.57;7.60;;;;;;;8.15;100.00;100983.00;5040865;28;20029;-75
2023/04/09 02:01:17;;;;;;;15.77;7.80;;;;;;;8.11;100.00;100979.94;5033264;28;20025;-75
2023/04/09 02:03:56;;;;;;;11.82;6.90;;;;;;;8.04;100.00;100973.78;5019298;28;20492;-75
2023/04/09 02:06:32;;;;;;;13.95;8.38;;;;;;;7.93;100.00;100970.13;5011452;28;20033;-75
2023/04/09 02:08:57;;;;;;;11.60;7.78;;;;;;;7.88;100.00;100972.00;5039993;28;20034;-75
2023/04/09 02:11:23;;;;;;;15.40;8.00;;;;;;;7.83;100.00;100972.81;5000801;28;20044;-74
2023/04/09 02:13:48;;;;;;;17.67;8.23;;;;;;;7.78;100.00;100965.31;5032671;28;20030;-75
2023/04/09 02:16:14;;;;;;;15.43;8.65;;;;;;;7.68;100.00;100965.22;5032759;28;20132;-75
2023/04/09 02:18:40;;;;;;;12.43;7.05;;;;;;;7.72;100.00;100968.31;5016384;28;20518;-75
2023/04/09 02:21:05;;;;;;;13.95;7.82;;;;;;;7.70;100.00;100963.03;5057585;28;20497;-75
2023/04/09 02:23:32;;;;;;;14.48;7.25;;;;;;;7.69;100.00;100969.66;5033406;28;20043;-75
2023/04/09 02:25:57;;;;;;;11.70;7.22;;;;;;;7.70;100.00;100973.25;5017668;28;20033;-75
2023/04/09 02:28:23;;;;;;;10.35;6.75;;;;;;;7.67;100.00;100965.50;4988409;28;20043;-75
2023/04/09 02:30:48;;;;;;;13.60;7.75;;;;;;;7.66;100.00;100972.09;5018349;28;20030;-74
2023/04/09 02:33:14;;;;;;;14.13;7.35;;;;;;;7.59;100.00;100966.81;5008662;28;20091;-75
2023/04/09 02:35:39;;;;;;;13.85;7.55;;;;;;;7.61;100.00;100970.16;5052517;28;20030;-75
2023/04/09 02:38:06;;;;;;;11.30;6.82;;;;;;;7.60;100.00;100965.69;5015524;28;20025;-75
2023/04/09 02:40:32;;;;;;;12.30;7.07;;;;;;;7.57;100.00;100969.00;5053191;28;20037;-75
2023/04/09 02:42:58;;;;;;;13.52;7.28;;;;;;;7.58;100.00;100963.22;5037007;28;20032;-74
2023/04/09 02:45:24;;;;;;;12.45;8.10;;;;;;;7.59;100.00;100958.53;4987661;28;20498;-75
2023/04/09 02:47:49;;;;;;;12.68;8.77;;;;;;;7.53;100.00;100957.66;5034733;28;20089;-75
2023/04/09 02:50:16;;;;;;;11.32;7.80;;;;;;;7.55;100.00;100947.16;5058980;28;20045;-75
2023/04/09 02:52:41;;;;;;;12.88;8.13;;;;;;;7.54;100.00;100948.25;5051238;28;20033;-75
2023/04/09 02:55:07;;;;;;;14.73;8.30;;;;;;;7.52;100.00;100944.94;5018568;28;20034;-75
2023/04/09 02:57:32;;;;;;;13.43;8.55;;;;;;;7.53;100.00;100943.81;5042401;28;20399;-75
2023/04/09 02:59:58;;;;;;;14.30;8.80;;;;;;;7.53;100.00;100940.22;5019738;28;20041;-75
2023/04/09 03:02:23;;;;;;;17.35;8.80;;;;;;;7.55;100.00;100932.47;5019495;28;20041;-74
2023/04/09 03:04:49;;;;;;;15.07;8.52;;;;;;;7.55;100.00;100926.97;5019819;28;20091;-75
2023/04/09 03:07:15;;;;;;;14.60;8.45;;;;;;;7.54;100.00;100933.59;4985097;28;20021;-75
2023/04/09 03:09:40;;;;;;;13.68;8.23;;;;;;;7.56;100.00;100937.75;5002929;28;20425;-75
2023/04/09 03:12:06;;;;;;;13.45;8.25;;;;;;;7.54;100.00;100933.59;5037408;28;20025;-75
2023/04/09 03:14:31;;;;;;;16.83;8.95;;;;;;;7.53;100.00;100927.25;5033157;28;20030;-75
2023/04/09 03:16:57;;;;;;;16.13;8.35;;;;;;;7.50;100.00;100921.41;5029207;28;20034;-74
2023/04/09 03:19:22;;;;;;;16.27;10.25;;;;;;;7.45;100.00;100929.66;5054528;28;20025;-75
2023/04/09 03:21:49;;;;;;;17.05;10.15;;;;;;;7.42;100.00;100921.91;5023165;28;20091;-75
2023/04/09 03:24:15;;;;;;;15.90;9.52;;;;;;;7.43;100.00;100929.06;5033217;28;20113;-75
2023/04/09 03:26:40;;;;;;;18.70;10.95;;;;;;;7.39;100.00;100928.78;5031671;28;20041;-75
2023/04/09 03:29:06;;;;;;;19.10;9.93;;;;;;;7.38;100.00;100921.56;5037089;28;20037;-75
2023/04/09 03:31:32;;;;;;;16.83;9.65;;;;;;;7.35;100.00;100922.94;5002933;28;20099;-75
2023/04/09 03:33:57;;;;;;;15.02;10.05;;;;;;;7.33;100.00;100927.06;4999775;28;20060;-75
2023/04/09 03:36:23;;;;;;;13.55;8.45;;;;;;;7.32;100.00;100923.44;5013201;28;20545;-75
2023/04/09 03:38:48;;;;;;;14.52;9.45;;;;;;;7.27;100.00;100934.47;5036046;28;20092;-75
2023/04/09 03:41:14;;;;;;;15.93;9.43;;;;;;;7.23;100.00;100932.50;5035629;28;20044;-75
2023/04/09 03:43:40;;;;;;;19.30;9.82;;;;;;;7.23;100.00;100927.78;5038913;28;20052;-75
2023/04/09 03:46:15;;;;;;;13.75;9.55;;;;;;;7.23;100.00;100922.25;5006104;28;20574;-75
2023/04/09 03:48:41;;;;;;;19.45;10.70;;;;;;;7.19;100.00;100929.44;5035603;28;20041;-75
2023/04/09 03:51:15;;;;;;;15.68;9.27;;;;;;;7.19;100.00;100932.19;5019160;28;20029;-75
2023/04/09 03:53:41;;;;;;;14.27;9.20;;;;;;;7.20;100.00;100924.72;5019034;28;20044;-75
2023/04/09 03:56:07;;;;;;;15.20;9.70;;;;;;;7.18;100.00;100932.44;5002641;28;20041;-75
2023/04/09 03:58:33;;;;;;;18.60;9.98;;;;;;;7.10;100.00;100933.72;5035363;28;20037;-75
2023/04/09 04:01:00;;;;;;;15.98;9.40;;;;;;;7.08;100.00;100928.50;5035428;28;20053;-75
2023/04/09 04:03:25;;;;;;;14.65;10.20;;;;;;;6.98;100.00;100925.59;5035425;28;20060;-74
2023/04/09 04:05:51;;;;;;;17.13;9.82;;;;;;;7.00;100.00;100928.13;5032034;28;20084;-75
2023/04/09 04:08:16;;;;;;;14.70;9.27;;;;;;;6.99;100.00;100926.44;5044285;28;20029;-75
2023/04/09 04:10:41;;;;;;;15.27;9.55;;;;;;;6.97;100.00;100928.66;5050221;28;20041;-75
2023/04/09 04:13:07;;;;;;;14.07;9.95;;;;;;;6.92;100.00;100930.25;5034998;28;20087;-74
2023/04/09 04:15:33;;;;;;;16.38;10.13;;;;;;;6.87;100.00;100921.91;5018456;28;20109;-75
2023/04/09 04:17:59;;;;;;;17.10;9.65;;;;;;;6.81;100.00;100922.94;5050699;28;20052;-75
2023/04/09 04:20:25;;;;;;;14.80;9.63;;;;;;;6.77;100.00;100930.09;5034453;28;20450;-75
2023/04/09 04:22:50;;;;;;;15.98;10.30;;;;;;;6.72;100.00;100928.09;5018286;28;20112;-75
2023/04/09 04:25:16;;;;;;;16.35;11.02;;;;;;;6.67;100.00;100927.19;5018126;28;20037;-74
2023/04/09 04:27:41;;;;;;;15.27;9.23;;;;;;;6.68;100.00;100923.34;5018266;28;20044;-75
2023/04/09 04:30:07;;;;;;;15.05;10.23;;;;;;;6.67;100.00;100919.75;5024302;28;20029;-74
2023/04/09 04:32:33;;;;;;;17.77;10.27;;;;;;;6.65;100.00;100918.34;5013277;28;20025;-75
2023/04/09 04:34:58;;;;;;;16.77;10.25;;;;;;;6.64;100.00;100917.50;5003968;28;20029;-75
2023/04/09 04:37:24;;;;;;;15.05;9.90;;;;;;;6.63;100.00;100909.47;5032941;28;20068;-75
2023/04/09 04:39:49;;;;;;;16.45;9.95;;;;;;;6.63;100.00;100915.00;5018178;28;20080;-74
2023/04/09 04:42:15;;;;;;;17.35;10.52;;;;;;;6.61;100.00;100922.72;5014677;28;20034;-75
2023/04/09 04:44:41;;;;;;;16.25;10.07;;;;;;;6.59;100.00;100920.19;5016698;28;20034;-75
2023/04/09 04:47:06;;;;;;;15.32;9.77;;;;;;;6.59;100.00;100919.38;5050796;28;20107;-74
2023/04/09 04:49:32;;;;;;;16.60;10.13;;;;;;;6.54;100.00;100917.38;4984179;28;20403;-74
2023/04/09 04:51:57;;;;;;;15.93;10.00;;;;;;;6.53;100.00;100917.66;5014854;28;20045;-74
2023/04/09 04:54:23;;;;;;;19.48;10.93;;;;;;;6.52;100.00;100915.97;5028734;28;20512;-75
2023/04/09 04:56:48;;;;;;;19.55;10.85;;;;;;;6.51;100.00;100922.59;5035667;28;20029;-75
2023/04/09 04:59:14;;;;;;;17.00;10.60;;;;;;;6.44;100.00;100923.63;5039437;28;20087;-74
2023/04/09 05:01:39;;;;;;;18.58;10.50;;;;;;;6.45;100.00;100921.69;5033947;28;20040;-74
2023/04/09 05:04:05;;;;;;;25.73;12.25;;;;;;;6.40;100.00;100932.66;5033923;28;20033;-75
2023/04/09 05:06:31;;;;;;;20.05;12.27;;;;;;;6.37;100.00;100941.44;5050753;28;20029;-75
2023/04/09 05:08:57;;;;;;;17.42;11.00;;;;;;;6.35;100.00;100941.72;5033515;28;20029;-74
2023/04/09 05:11:25;;;;;;;19.92;11.82;;;;;;;6.31;100.00;100945.22;5033279;28;20040;-75
2023/04/09 05:13:50;;;;;;;19.00;11.50;;;;;;;6.31;100.00;100940.53;5033762;28;20049;-74
2023/04/09 05:16:17;;;;;;;20.30;11.80;;;;;;;6.30;100.00;100941.63;5050396;28;20394;-75
2023/04/09 05:18:42;;;;;;;19.48;12.30;;;;;;;6.27;100.00;100933.88;5001914;28;20025;-75
2023/04/09 05:21:08;;;;;;;21.17;12.40;;;;;;;6.23;100.00;100935.47;5019486;28;20482;-74
2023/04/09 05:23:33;;;;;;;18.23;11.63;;;;;;;6.25;100.00;100936.88;5037633;28;20041;-75
2023/04/09 05:25:59;;;;;;;20.88;11.52;;;;;;;6.28;100.00;100941.06;5014096;28;20030;-75
2023/04/09 05:28:24;;;;;;;20.15;12.27;;;;;;;6.24;100.00;100939.88;5030780;28;20445;-74
2023/04/09 05:30:50;;;;;;;17.02;12.05;;;;;;;6.26;100.00;100943.22;5030572;28;20045;-75
2023/04/09 05:33:15;;;;;;;21.52;12.82;;;;;;;6.21;100.00;100941.25;5000371;28;20467;-74
2023/04/09 05:35:41;;;;;;;20.00;10.95;;;;;;;6.24;100.00;100939.88;5033927;28;20025;-75
2023/04/09 05:38:06;;;;;;;19.38;11.75;;;;;;;6.24;100.00;100943.50;5001388;28;20027;-75
2023/04/09 05:40:32;;;;;;;18.63;11.55;;;;;;;6.22;100.00;100942.06;5049663;28;20052;-74
2023/04/09 05:42:57;;;;;;;20.98;13.10;;;;;;;6.24;100.00;100945.38;5033600;28;20079;-75
2023/04/09 05:45:22;;;;;;;20.13;12.20;;;;;;;6.26;100.00;100948.75;5015354;28;20368;-75
2023/04/09 05:47:48;;;;;;;20.67;12.55;;;;;;;6.25;100.00;100956.19;5015558;28;20033;-75
2023/04/09 05:50:14;;;;;;;21.75;12.32;;;;;;;6.27;100.00;100947.66;5000152;28;20045;-75
2023/04/09 05:52:39;;;;;;;21.83;11.93;;;;;;;6.28;100.00;100952.09;4998050;28;20423;-74
2023/04/09 05:55:05;;;;;;;20.90;12.80;;;;;;;6.26;100.00;100945.97;5033284;28;20518;-74
2023/04/09 05:57:31;;;;;;;21.17;12.55;;;;;;;6.29;100.00;100942.72;4998954;28;20425;-75
2023/04/09 05:59:56;;;;;;;20.85;12.57;;;;;;;6.32;100.00;100941.38;5017145;28;20075;-74
2023/04/09 06:02:23;;;;;;;22.10;12.95;;;;;;;6.35;100.00;100940.84;5000765;28;20108;-75
2023/04/09 06:04:49;;;;;;;22.98;13.38;;;;;;;6.38;100.00;100948.63;5033940;28;20108;-75
2023/04/09 06:07:15;;;;;;;22.83;13.52;;;;;;;6.43;100.00;100951.44;5033752;28;20033;-73
2023/04/09 06:09:42;;;;;;;23.10;13.32;;;;;;;6.49;100.00;100959.56;5004844;28;20041;-74
2023/04/09 06:12:08;;;;;;;24.20;13.48;;;;;;;6.58;100.00;100953.59;5041546;28;20153;-74
2023/04/09 06:14:34;;;;;;;24.98;13.98;;;;;;;6.66;100.00;100958.66;5039446;28;20131;-74
2023/04/09 06:16:59;;;;;;;22.75;14.30;;;;;;;6.75;100.00;100954.34;5053641;28;20506;-75
2023/04/09 06:19:25;;;;;;;22.52;13.05;;;;;;;6.85;100.00;100951.72;5020503;28;20030;-74
2023/04/09 06:21:50;;;;;;;25.30;14.35;;;;;;;6.96;100.00;100949.03;5021098;28;20052;-74
2023/04/09 06:24:15;;;;;;;26.05;14.30;;;;;;;7.04;100.00;100949.41;5001563;28;20418;-74
2023/04/09 06:26:41;;;;;;;24.58;13.90;;;;;;;7.13;100.00;100947.00;5036663;28;20036;-74
2023/04/09 06:29:06;;;;;;;24.30;13.27;;;;;;;7.20;100.00;100952.34;5053646;28;20026;-75
2023/04/09 06:31:32;;;;;;;21.70;13.45;;;;;;;7.25;100.00;100952.41;5013384;28;20038;-75
2023/04/09 06:33:58;;;;;;;25.65;13.65;;;;;;;7.28;100.00;100958.22;5024632;28;20025;-74
2023/04/09 06:36:23;;;;;;;26.90;13.98;;;;;;;7.31;100.00;100954.13;5041196;28;20120;-77
2023/04/09 06:38:49;;;;;;;21.25;12.27;;;;;;;7.35;100.00;100967.16;5045438;28;20093;-73
2023/04/09 06:41:14;;;;;;;22.17;13.52;;;;;;;7.38;100.00;100963.00;5032135;28;20041;-72
2023/04/09 06:43:40;;;;;;;23.27;13.25;;;;;;;7.41;100.00;100961.66;5020231;28;20492;-73
2023/04/09 06:46:06;;;;;;;20.73;13.63;;;;;;;7.44;100.00;100966.66;4985055;28;20060;-73
2023/04/09 06:48:31;;;;;;;24.33;13.07;;;;;;;7.47;100.00;100966.16;5036577;28;20037;-72
2023/04/09 06:50:57;;;;;;;23.90;13.32;;;;;;;7.51;100.00;100956.22;5020341;28;20083;-72
2023/04/09 06:53:22;;;;;;;21.92;14.20;;;;;;;7.53;100.00;100954.88;5053593;28;20504;-73
2023/04/09 06:55:48;;;;;;;24.27;14.32;;;;;;;7.59;100.00;100962.09;5036567;28;20030;-72
2023/04/09 06:58:13;;;;;;;21.05;13.00;;;;;;;7.68;100.00;100959.69;5020598;28;20101;-73
2023/04/09 07:00:39;;;;;;;27.98;14.25;;;;;;;7.77;100.00;100971.09;5024206;28;20037;-72
2023/04/09 07:03:06;;;;;;;23.60;13.80;;;;;;;7.84;100.00;100969.78;5035641;28;20030;-73
2023/04/09 07:05:32;;;;;;;23.60;13.80;;;;;;;7.96;100.00;100977.88;5020447;28;20033;-73
2023/04/09 07:07:57;;;;;;;25.58;14.07;;;;;;;8.11;100.00;100982.72;5019641;28;20048;-73
2023/04/09 07:10:23;;;;;;;23.00;13.50;;;;;;;8.23;100.00;100980.56;5003312;28;20028;-73
2023/04/09 07:12:48;;;;;;;22.90;12.77;;;;;;;8.37;100.00;100977.34;5019996;28;20470;-73
2023/04/09 07:15:14;;;;;;;20.10;13.05;;;;;;;8.53;100.00;100965.28;5020096;28;20482;-73
2023/04/09 07:17:39;;;;;;;30.02;14.38;;;;;;;8.68;100.00;100961.75;5019562;28;20029;-74
2023/04/09 07:20:05;;;;;;;22.48;12.93;;;;;;;8.83;100.00;100978.44;4983622;28;20029;-73
2023/04/09 07:22:30;;;;;;;23.60;13.82;;;;;;;8.89;100.00;100970.97;5061993;28;20120;-73
2023/04/09 07:24:56;;;;;;;26.33;13.82;;;;;;;8.98;100.00;100971.28;5068131;28;20055;-73
2023/04/09 07:27:22;;;;;;;24.52;13.32;;;;;;;9.05;100.00;100978.19;4984933;28;20022;-73
2023/04/09 07:29:48;;;;;;;22.75;13.02;;;;;;;9.13;100.00;100976.84;5018345;28;20084;-73
2023/04/09 07:32:14;;;;;;;23.45;12.50;;;;;;;9.20;100.00;100973.84;5032343;28;20042;-73
2023/04/09 07:34:40;;;;;;;23.13;14.13;;;;;;;9.25;100.00;100965.50;5035089;28;20049;-73
2023/04/09 07:37:05;;;;;;;18.60;12.80;;;;;;;9.36;100.00;100972.72;5035412;28;20052;-73
2023/04/09 07:39:31;;;;;;;21.83;13.68;;;;;;;9.44;100.00;100974.97;5052830;28;20040;-73
2023/04/09 07:41:56;;;;;;;20.85;12.43;;;;;;;9.59;100.00;100971.41;5032527;28;20025;-73
2023/04/09 07:44:23;;;;;;;21.77;14.45;;;;;;;9.74;100.00;100967.78;5062410;28;20033;-73
2023/04/09 07:46:48;;;;;;;22.55;13.45;;;;;;;9.89;100.00;100965.03;5043073;28;20055;-73
2023/04/09 07:49:15;;;;;;;21.52;13.65;;;;;;;10.07;100.00;100958.88;5039902;28;20046;-73
2023/04/09 07:51:40;;;;;;;23.50;13.70;;;;;;;10.28;100.00;100945.84;5020705;28;20037;-73
2023/04/09 07:54:07;;;;;;;22.77;13.98;;;;;;;10.47;100.00;100954.41;5019285;28;20037;-74
2023/04/09 07:56:33;;;;;;;20.55;12.35;;;;;;;10.65;100.00;100950.16;5033319;28;20500;-74
2023/04/09 07:58:58;;;;;;;18.58;11.82;;;;;;;10.88;100.00;100953.38;5029234;28;20036;-74
2023/04/09 08:01:25;;;;;;;22.20;12.05;;;;;;;11.10;100.00;100951.03;5018615;28;20029;-74
2023/04/09 08:03:50;;;;;;;20.08;13.40;;;;;;;11.29;100.00;100953.16;5002728;28;20034;-74
2023/04/09 08:06:16;;;;;;;17.90;11.68;;;;;;;11.50;100.00;100953.84;5019185;28;20025;-74
2023/04/09 08:08:42;;;;;;;20.27;12.02;;;;;;;11.69;100.00;100957.56;5002798;28;20459;-73
2023/04/09 08:11:07;;;;;;;19.00;11.13;;;;;;;11.88;100.00;100945.78;5050371;28;20075;-74
2023/04/09 08:13:33;;;;;;;14.77;10.73;;;;;;;12.06;100.00;100957.03;5039291;28;20026;-73
2023/04/09 08:16:02;;;;;;;15.40;10.77;;;;;;;12.25;100.00;100959.88;5053202;28;20025;-74
2023/04/09 08:18:28;;;;;;;15.85;10.40;;;;;;;12.46;100.00;100959.66;5019018;28;20572;-74
2023/04/09 08:20:53;;;;;;;14.20;10.23;;;;;;;12.64;100.00;100964.44;5035238;28;20037;-74
2023/04/09 08:23:19;;;;;;;18.30;10.75;;;;;;;12.83;100.00;100963.69;5034212;28;20037;-74
2023/04/09 08:25:45;;;;;;;17.95;9.60;;;;;;;13.02;100.00;100961.75;5002641;28;20029;-74
2023/04/09 08:28:10;;;;;;;18.30;11.05;;;;;;;13.15;100.00;100961.03;5022880;28;20041;-75
2023/04/09 08:30:36;;;;;;;17.15;11.25;;;;;;;13.30;100.00;100961.97;5028609;28;20056;-74
2023/04/09 08:33:01;;;;;;;17.08;10.82;;;;;;;13.43;100.00;100955.63;5022220;28;20402;-74
2023/04/09 08:35:28;;;;;;;15.23;10.32;;;;;;;13.59;100.00;100948.66;5033112;28;20064;-74
2023/04/09 08:37:55;;;;;;;14.25;9.50;;;;;;;13.77;100.00;100955.34;5006548;28;20029;-74
2023/04/09 08:40:21;;;;;;;12.75;8.68;;;;;;;13.92;100.00;100951.47;5000206;28;20021;-74
2023/04/09 08:42:47;;;;;;;14.25;8.85;;;;;;;14.12;100.00;100946.66;5018523;28;20067;-74
2023/04/09 08:45:12;;;;;;;14.23;10.05;;;;;;;14.27;100.00;100941.63;5031864;28;20095;-74
2023/04/09 08:47:39;;;;;;;14.07;9.82;;;;;;;14.43;100.00;100938.50;5047810;28;20586;-74
2023/04/09 08:50:05;;;;;;;13.70;9.90;;;;;;;14.60;100.00;100943.50;5033818;28;20063;-74
2023/04/09 08:52:31;;;;;;;13.23;8.75;;;;;;;14.79;100.00;100941.44;5024844;28;20030;-75
2023/04/09 08:54:57;;;;;;;11.95;8.23;;;;;;;14.96;100.00;100926.84;5035056;28;20040;-74
2023/04/09 08:57:22;;;;;;;11.07;8.00;;;;;;;15.09;100.00;100930.72;4977416;28;20034;-75
2023/04/09 08:59:47;;;;;;;12.40;7.95;;;;;;;15.22;96.53;100929.88;5034707;28;20109;-75
2023/04/09 09:02:13;;;;;;;12.35;7.85;;;;;;;15.42;91.53;100942.56;5021985;28;20406;-74
2023/04/09 09:04:48;;;;;;;15.10;8.88;;;;;;;15.55;95.27;100941.69;5035095;28;20029;-74
2023/04/09 09:07:14;;;;;;;11.73;8.00;;;;;;;15.66;94.78;100942.25;5016546;28;20113;-75
2023/04/09 09:09:56;;;;;;;11.45;6.88;;;;;;;15.80;91.99;100936.63;4998330;28;20037;-75
2023/04/09 09:12:35;;;;;;;10.05;7.10;;;;;;;15.98;87.86;100931.94;5017758;28;20029;-75
2023/04/09 09:15:01;;;;;;;10.02;7.07;;;;;;;16.14;84.99;100924.78;4998965;28;20368;-74
2023/04/09 09:17:27;;;;;;;11.05;6.80;;;;;;;16.29;85.23;100927.16;5035109;28;20040;-75
2023/04/09 09:19:52;;;;;;;11.48;7.53;;;;;;;16.33;85.79;100920.94;5017827;28;20056;-75
2023/04/09 09:22:18;;;;;;;9.82;6.75;;;;;;;16.45;88.09;100918.34;5001633;28;20044;-75
2023/04/09 09:24:51;;;;;;;9.13;6.70;;;;;;;16.52;90.07;100913.94;5019750;28;20033;-75
2023/04/09 09:27:35;;;;;;;9.30;7.20;;;;;;;16.62;84.69;100911.97;5034268;28;20733;-74
2023/04/09 09:30:05;;;;;;;9.25;5.93;;;;;;;16.74;84.02;100915.81;5054268;28;20033;-75
2023/04/09 09:32:34;;;;;;;10.43;6.43;;;;;;;16.88;85.61;100914.84;5025576;28;20030;-75
2023/04/09 09:35:03;;;;;;;11.27;7.53;;;;;;;16.97;86.87;100913.75;5016256;28;20109;-75
2023/04/09 09:37:29;;;;;;;10.95;7.00;;;;;;;17.05;83.35;100902.84;4998695;28;20025;-75
2023/04/09 09:39:55;;;;;;;10.02;6.38;;;;;;;17.12;83.67;100895.59;5017708;28;20040;-75
2023/04/09 09:42:20;;;;;;;8.73;6.10;;;;;;;17.34;76.55;100905.03;4984980;28;20029;-75
2023/04/09 09:44:46;;;;;;;11.30;6.60;;;;;;;17.45;76.57;100895.09;5038396;28;20025;-75
2023/04/09 09:47:14;;;;;;;8.85;6.53;;;;;;;17.56;75.90;100898.41;5037807;28;20108;-75
2023/04/09 09:49:40;;;;;;;8.68;6.45;;;;;;;17.63;73.86;100890.28;4993205;28;20049;-75
2023/04/09 09:52:08;;;;;;;9.35;5.75;;;;;;;17.78;72.88;100905.81;5023579;28;20037;-75
2023/04/09 09:54:39;;;;;;;8.10;6.03;;;;;;;17.82;68.68;100901.19;5005349;28;20033;-75
2023/04/09 09:57:05;;;;;;;8.55;5.63;;;;;;;17.94;68.05;100901.34;5017722;28;20163;-77
2023/04/09 09:59:31;;;;;;;8.30;5.97;;;;;;;18.01;68.22;100912.88;5030642;28;20030;-75
2023/04/09 10:02:00;;;;;;;7.55;5.38;;;;;;;18.13;67.32;100902.94;5036128;28;20029;-75
2023/04/09 10:04:27;;;;;;;7.57;5.82;;;;;;;18.21;65.80;100910.50;5025825;28;20026;-75
2023/04/09 10:06:52;;;;;;;6.13;4.82;;;;;;;18.31;64.07;100898.91;5017763;28;20026;-75
2023/04/09 10:09:18;;;;;;;8.18;5.07;;;;;;;18.41;65.23;100909.75;5036118;28;20034;-74
2023/04/09 10:11:46;;;;;;;6.40;4.93;;;;;;;18.50;64.50;100907.75;5020692;28;20044;-75
2023/04/09 10:14:12;;;;;;;7.65;5.35;;;;;;;18.59;66.78;100909.72;5038412;28;20524;-75
2023/04/09 10:16:37;;;;;;;6.55;3.90;;;;;;;18.67;64.42;100911.66;5014937;28;20064;-75
2023/04/09 10:19:03;;;;;;;5.43;4.20;;;;;;;18.73;63.62;100913.09;5054174;28;20021;-75
2023/04/09 10:21:39;;;;;;;8.13;5.38;;;;;;;18.80;66.15;100907.78;5023756;28;20666;-75
2023/04/09 10:24:06;;;;;;;8.18;5.30;;;;;;;18.91;65.25;100902.59;5033995;28;20038;-75
2023/04/09 10:26:34;;;;;;;7.35;4.28;;;;;;;18.97;62.76;100907.69;5028830;28;20395;-75
2023/04/09 10:29:13;;;;;;;8.05;5.30;;;;;;;19.08;62.83;100893.19;5033048;28;20033;-75
2023/04/09 10:32:05;;;;;;;9.13;4.85;;;;;;;19.19;62.09;100891.63;5025932;28;20037;-75
2023/04/09 10:34:38;;;;;;;8.43;5.10;;;;;;;19.29;62.73;100902.47;5033616;28;20025;-75
2023/04/09 10:37:05;;;;;;;5.22;4.30;;;;;;;19.38;61.81;100903.22;5037664;28;20021;-75
2023/04/09 10:39:31;;;;;;;7.28;4.45;;;;;;;19.47;60.58;100896.69;5003974;28;20091;-75
2023/04/09 10:42:07;;;;;;;5.50;3.72;;;;;;;19.59;61.05;100905.22;5016955;28;20049;-75
2023/04/09 10:44:34;;;;;;;6.20;4.10;;;;;;;19.69;60.63;100896.34;5048589;28;20473;-75
2023/04/09 10:47:02;;;;;;;5.38;3.63;;;;;;;19.73;58.98;100897.31;5004199;28;20025;-75
2023/04/09 10:49:34;;;;;;;5.38;2.97;;;;;;;19.81;58.33;100895.59;5031931;28;20534;-75
2023/04/09 10:52:01;;;;;;;6.40;3.47;;;;;;;19.95;58.63;100892.47;5050018;28;20120;-75
2023/04/09 10:54:33;;;;;;;6.50;3.80;;;;;;;19.96;55.88;100889.28;5036648;28;20525;-75
2023/04/09 10:57:07;;;;;;;6.63;4.18;;;;;;;19.99;56.18;100887.75;5034981;28;20533;-75
2023/04/09 10:59:40;;;;;;;6.32;4.05;;;;;;;20.07;56.51;100893.28;5033608;28;20117;-75
2023/04/09 11:02:18;;;;;;;5.35;3.45;;;;;;;20.08;54.79;100889.28;5039021;28;20038;-76
2023/04/09 11:05:10;;;;;;;5.53;3.42;;;;;;;20.11;55.01;100884.94;5021238;28;20041;-75
2023/04/09 11:07:39;;;;;;;4.07;3.20;;;;;;;20.18;56.05;100896.47;5025341;28;20040;-76
2023/04/09 11:10:05;;;;;;;7.22;3.70;;;;;;;20.19;53.74;100897.31;5052543;28;20030;-76
2023/04/09 11:12:30;;;;;;;4.22;2.95;;;;;;;20.23;54.19;100895.44;5003447;28;20025;-76
2023/04/09 11:14:56;;;;;;;5.35;3.60;;;;;;;20.30;54.38;100873.94;5037703;28;20540;-76